sensor_id;sensor_type;location;lat;lon;timestamp;temperature;humidity
5492;DHT22;2768;53.540;10.224;2022-08-03T00:03:47;22.20;37.90
5492;DHT22;2768;53.540;10.224;2022-08-03T00:09:40;22.30;37.40
5492;DHT22;2768;53.540;10.224;2022-08-03T00:15:35;22.30;35.70
5492;DHT22;2768;53.540;10.224;2022-08-03T00:21:29;22.20;35.70
5492;DHT22;2768;53.540;10.224;2022-08-03T00:27:22;22.20;36.30
5492;DHT22;2768;53.540;10.224;2022-08-03T00:33:16;22.30;37.30
5492;DHT22;2768;53.540;10.224;2022-08-03T00:39:12;22.20;39.60
5492;DHT22;2768;53.540;10.224;2022-08-03T00:45:06;22.20;37.70
5492;DHT22;2768;53.540;10.224;2022-08-03T00:51:01;22.20;36.30
5492;DHT22;2768;53.540;10.224;2022-08-03T00:56:55;22.30;34.40
5492;DHT22;2768;53.540;10.224;2022-08-03T01:02:51;22.30;30.00
5492;DHT22;2768;53.540;10.224;2022-08-03T01:08:53;22.20;28.40
5492;DHT22;2768;53.540;10.224;2022-08-03T01:14:53;22.10;27.70
5492;DHT22;2768;53.540;10.224;2022-08-03T01:20:52;22.10;29.20
5492;DHT22;2768;53.540;10.224;2022-08-03T01:27:09;22.00;29.50
5492;DHT22;2768;53.540;10.224;2022-08-03T01:33:11;21.90;32.90
5492;DHT22;2768;53.540;10.224;2022-08-03T01:39:06;21.90;36.70
5492;DHT22;2768;53.540;10.224;2022-08-03T01:45:02;21.80;35.30
5492;DHT22;2768;53.540;10.224;2022-08-03T01:50:59;21.80;40.80
5492;DHT22;2768;53.540;10.224;2022-08-03T01:56:53;21.80;41.00
5492;DHT22;2768;53.540;10.224;2022-08-03T02:02:49;21.60;43.70
5492;DHT22;2768;53.540;10.224;2022-08-03T02:08:46;21.40;50.30
5492;DHT22;2768;53.540;10.224;2022-08-03T02:14:42;21.50;50.80
5492;DHT22;2768;53.540;10.224;2022-08-03T02:20:37;21.50;53.50
5492;DHT22;2768;53.540;10.224;2022-08-03T02:26:36;21.20;60.10
5492;DHT22;2768;53.540;10.224;2022-08-03T02:32:33;21.20;65.40
5492;DHT22;2768;53.540;10.224;2022-08-03T02:38:39;21.00;68.70
5492;DHT22;2768;53.540;10.224;2022-08-03T02:44:34;21.00;68.70
5492;DHT22;2768;53.540;10.224;2022-08-03T02:50:31;21.00;68.70
5492;DHT22;2768;53.540;10.224;2022-08-03T02:56:26;21.10;68.80
5492;DHT22;2768;53.540;10.224;2022-08-03T03:02:22;20.90;74.70
5492;DHT22;2768;53.540;10.224;2022-08-03T03:08:18;20.80;76.10
5492;DHT22;2768;53.540;10.224;2022-08-03T03:14:20;20.90;79.90
5492;DHT22;2768;53.540;10.224;2022-08-03T03:20:27;20.90;80.70
5492;DHT22;2768;53.540;10.224;2022-08-03T03:26:21;20.80;83.30
5492;DHT22;2768;53.540;10.224;2022-08-03T03:32:15;20.70;87.00
5492;DHT22;2768;53.540;10.224;2022-08-03T03:38:10;20.80;87.80
5492;DHT22;2768;53.540;10.224;2022-08-03T03:44:04;20.70;91.70
5492;DHT22;2768;53.540;10.224;2022-08-03T03:49:58;20.80;93.70
5492;DHT22;2768;53.540;10.224;2022-08-03T03:55:53;21.00;91.10
5492;DHT22;2768;53.540;10.224;2022-08-03T04:01:53;20.90;91.20
5492;DHT22;2768;53.540;10.224;2022-08-03T04:07:56;21.20;89.40
5492;DHT22;2768;53.540;10.224;2022-08-03T04:14:11;20.50;95.40
5492;DHT22;2768;53.540;10.224;2022-08-03T04:20:06;20.40;99.90
5492;DHT22;2768;53.540;10.224;2022-08-03T04:26:01;20.60;99.90
5492;DHT22;2768;53.540;10.224;2022-08-03T04:31:57;20.60;99.90
5492;DHT22;2768;53.540;10.224;2022-08-03T04:37:55;20.70;99.90
5492;DHT22;2768;53.540;10.224;2022-08-03T04:43:54;20.70;99.90
5492;DHT22;2768;53.540;10.224;2022-08-03T04:49:50;20.70;99.90
5492;DHT22;2768;53.540;10.224;2022-08-03T04:55:43;20.70;99.90
5492;DHT22;2768;53.540;10.224;2022-08-03T05:01:38;20.70;99.90
5492;DHT22;2768;53.540;10.224;2022-08-03T05:07:33;20.80;99.90
5492;DHT22;2768;53.540;10.224;2022-08-03T05:13:27;21.00;99.90
5492;DHT22;2768;53.540;10.224;2022-08-03T05:19:20;20.70;99.90
5492;DHT22;2768;53.540;10.224;2022-08-03T05:25:15;20.90;99.90
5492;DHT22;2768;53.540;10.224;2022-08-03T05:31:13;21.10;99.90
5492;DHT22;2768;53.540;10.224;2022-08-03T05:37:06;21.00;99.90
5492;DHT22;2768;53.540;10.224;2022-08-03T05:43:01;21.00;99.90
5492;DHT22;2768;53.540;10.224;2022-08-03T05:48:55;21.10;99.90
5492;DHT22;2768;53.540;10.224;2022-08-03T05:54:48;21.10;99.90
5492;DHT22;2768;53.540;10.224;2022-08-03T06:00:49;21.20;99.90
5492;DHT22;2768;53.540;10.224;2022-08-03T06:06:42;21.30;99.90
5492;DHT22;2768;53.540;10.224;2022-08-03T06:12:36;21.40;99.90
5492;DHT22;2768;53.540;10.224;2022-08-03T06:18:33;21.50;99.90
5492;DHT22;2768;53.540;10.224;2022-08-03T06:24:27;21.60;99.90
5492;DHT22;2768;53.540;10.224;2022-08-03T06:30:20;21.80;99.90
5492;DHT22;2768;53.540;10.224;2022-08-03T06:36:15;21.90;98.60
5492;DHT22;2768;53.540;10.224;2022-08-03T06:42:08;22.00;97.50
5492;DHT22;2768;53.540;10.224;2022-08-03T06:48:04;22.20;91.90
5492;DHT22;2768;53.540;10.224;2022-08-03T06:53:59;22.40;73.10
5492;DHT22;2768;53.540;10.224;2022-08-03T06:59:53;22.60;73.10
5492;DHT22;2768;53.540;10.224;2022-08-03T07:06:02;22.80;66.50
5492;DHT22;2768;53.540;10.224;2022-08-03T07:11:57;23.00;62.70
5492;DHT22;2768;53.540;10.224;2022-08-03T07:17:53;23.10;63.60
5492;DHT22;2768;53.540;10.224;2022-08-03T07:23:46;23.20;60.90
5492;DHT22;2768;53.540;10.224;2022-08-03T07:29:41;23.40;62.20
5492;DHT22;2768;53.540;10.224;2022-08-03T07:35:35;23.60;61.90
5492;DHT22;2768;53.540;10.224;2022-08-03T07:41:28;23.70;57.60
5492;DHT22;2768;53.540;10.224;2022-08-03T07:47:25;23.80;61.20
5492;DHT22;2768;53.540;10.224;2022-08-03T07:53:26;23.90;58.60
5492;DHT22;2768;53.540;10.224;2022-08-03T07:59:19;24.00;61.50
5492;DHT22;2768;53.540;10.224;2022-08-03T08:05:14;24.40;62.80
5492;DHT22;2768;53.540;10.224;2022-08-03T08:11:07;24.40;49.20
5492;DHT22;2768;53.540;10.224;2022-08-03T08:17:01;24.40;53.50
5492;DHT22;2768;53.540;10.224;2022-08-03T08:23:00;24.60;39.80
5492;DHT22;2768;53.540;10.224;2022-08-03T08:29:15;25.10;24.40
5492;DHT22;2768;53.540;10.224;2022-08-03T08:35:09;25.00;14.30
5492;DHT22;2768;53.540;10.224;2022-08-03T08:41:03;25.20;3.50
5492;DHT22;2768;53.540;10.224;2022-08-03T08:47:02;25.30;4.90
5492;DHT22;2768;53.540;10.224;2022-08-03T08:52:56;25.40;8.30
5492;DHT22;2768;53.540;10.224;2022-08-03T08:58:57;25.40;2.40
5492;DHT22;2768;53.540;10.224;2022-08-03T09:04:51;25.70;1.00
5492;DHT22;2768;53.540;10.224;2022-08-03T09:10:45;26.00;1.00
5492;DHT22;2768;53.540;10.224;2022-08-03T09:16:54;25.90;1.00
5492;DHT22;2768;53.540;10.224;2022-08-03T09:22:56;25.90;1.00
5492;DHT22;2768;53.540;10.224;2022-08-03T09:28:55;26.00;1.00
5492;DHT22;2768;53.540;10.224;2022-08-03T09:35:03;26.10;1.90
5492;DHT22;2768;53.540;10.224;2022-08-03T09:41:00;26.10;1.00
5492;DHT22;2768;53.540;10.224;2022-08-03T09:46:54;26.20;1.00
5492;DHT22;2768;53.540;10.224;2022-08-03T09:52:50;26.20;1.00
5492;DHT22;2768;53.540;10.224;2022-08-03T09:58:44;26.40;1.00
5492;DHT22;2768;53.540;10.224;2022-08-03T10:04:46;26.50;1.00
5492;DHT22;2768;53.540;10.224;2022-08-03T10:10:43;26.60;1.00
5492;DHT22;2768;53.540;10.224;2022-08-03T10:16:37;26.70;1.00
5492;DHT22;2768;53.540;10.224;2022-08-03T10:22:34;26.70;1.00
5492;DHT22;2768;53.540;10.224;2022-08-03T10:28:34;27.00;1.00
5492;DHT22;2768;53.540;10.224;2022-08-03T10:34:38;27.10;1.00
5492;DHT22;2768;53.540;10.224;2022-08-03T10:40:37;27.00;1.00
5492;DHT22;2768;53.540;10.224;2022-08-03T10:46:43;27.20;1.00
5492;DHT22;2768;53.540;10.224;2022-08-03T10:52:55;27.40;1.00
5492;DHT22;2768;53.540;10.224;2022-08-03T10:58:52;27.60;1.00
5492;DHT22;2768;53.540;10.224;2022-08-03T11:05:23;27.70;1.00
5492;DHT22;2768;53.540;10.224;2022-08-03T11:11:26;28.00;1.00
5492;DHT22;2768;53.540;10.224;2022-08-03T11:17:20;28.40;1.00
5492;DHT22;2768;53.540;10.224;2022-08-03T11:23:17;28.70;1.00
5492;DHT22;2768;53.540;10.224;2022-08-03T11:29:31;28.90;1.00
5492;DHT22;2768;53.540;10.224;2022-08-03T11:35:27;28.40;1.00
5492;DHT22;2768;53.540;10.224;2022-08-03T11:41:32;28.50;1.00
5492;DHT22;2768;53.540;10.224;2022-08-03T11:47:37;29.00;1.00
5492;DHT22;2768;53.540;10.224;2022-08-03T11:53:42;29.10;1.00
5492;DHT22;2768;53.540;10.224;2022-08-03T11:59:40;29.10;1.00
5492;DHT22;2768;53.540;10.224;2022-08-03T12:05:39;29.00;1.00
5492;DHT22;2768;53.540;10.224;2022-08-03T12:11:42;29.70;1.00
5492;DHT22;2768;53.540;10.224;2022-08-03T12:17:52;29.50;1.00
5492;DHT22;2768;53.540;10.224;2022-08-03T12:23:49;29.40;1.00
5492;DHT22;2768;53.540;10.224;2022-08-03T12:29:42;29.40;1.00
5492;DHT22;2768;53.540;10.224;2022-08-03T12:36:05;29.50;1.00
5492;DHT22;2768;53.540;10.224;2022-08-03T12:41:59;29.40;1.00
5492;DHT22;2768;53.540;10.224;2022-08-03T12:47:53;29.50;1.00
5492;DHT22;2768;53.540;10.224;2022-08-03T12:53:53;29.50;1.00
5492;DHT22;2768;53.540;10.224;2022-08-03T12:59:46;29.90;1.00
5492;DHT22;2768;53.540;10.224;2022-08-03T13:05:45;30.20;1.00
5492;DHT22;2768;53.540;10.224;2022-08-03T13:11:39;29.90;1.00
5492;DHT22;2768;53.540;10.224;2022-08-03T13:17:53;30.10;1.00
5492;DHT22;2768;53.540;10.224;2022-08-03T13:23:47;30.40;1.00
5492;DHT22;2768;53.540;10.224;2022-08-03T13:29:42;30.30;1.00
5492;DHT22;2768;53.540;10.224;2022-08-03T13:35:36;30.80;1.00
5492;DHT22;2768;53.540;10.224;2022-08-03T13:41:30;30.70;1.00
5492;DHT22;2768;53.540;10.224;2022-08-03T13:47:25;31.00;1.00
5492;DHT22;2768;53.540;10.224;2022-08-03T13:53:19;31.80;1.00
5492;DHT22;2768;53.540;10.224;2022-08-03T13:59:12;32.20;1.00
5492;DHT22;2768;53.540;10.224;2022-08-03T14:05:07;31.30;1.00
5492;DHT22;2768;53.540;10.224;2022-08-03T14:11:01;31.30;1.00
5492;DHT22;2768;53.540;10.224;2022-08-03T14:16:56;31.70;1.00
5492;DHT22;2768;53.540;10.224;2022-08-03T14:22:50;31.70;1.00
5492;DHT22;2768;53.540;10.224;2022-08-03T14:28:44;31.80;1.00
5492;DHT22;2768;53.540;10.224;2022-08-03T14:34:38;32.00;1.00
5492;DHT22;2768;53.540;10.224;2022-08-03T14:40:32;31.70;1.00
5492;DHT22;2768;53.540;10.224;2022-08-03T14:46:26;32.10;1.00
5492;DHT22;2768;53.540;10.224;2022-08-03T14:52:19;32.40;1.00
5492;DHT22;2768;53.540;10.224;2022-08-03T14:58:14;31.70;1.00
5492;DHT22;2768;53.540;10.224;2022-08-03T15:04:12;31.60;1.00
5492;DHT22;2768;53.540;10.224;2022-08-03T15:10:05;31.60;1.00
5492;DHT22;2768;53.540;10.224;2022-08-03T15:15:59;31.70;1.00
5492;DHT22;2768;53.540;10.224;2022-08-03T15:21:53;31.30;1.00
5492;DHT22;2768;53.540;10.224;2022-08-03T15:27:46;31.10;1.00
5492;DHT22;2768;53.540;10.224;2022-08-03T15:33:56;31.10;1.00
5492;DHT22;2768;53.540;10.224;2022-08-03T15:39:50;30.90;1.00
5492;DHT22;2768;53.540;10.224;2022-08-03T15:45:51;31.00;1.00
5492;DHT22;2768;53.540;10.224;2022-08-03T15:52:06;30.90;1.00
5492;DHT22;2768;53.540;10.224;2022-08-03T15:58:00;30.90;1.00
5492;DHT22;2768;53.540;10.224;2022-08-03T16:04:14;30.70;1.00
5492;DHT22;2768;53.540;10.224;2022-08-03T16:10:10;30.60;1.00
5492;DHT22;2768;53.540;10.224;2022-08-03T16:16:04;30.40;1.00
5492;DHT22;2768;53.540;10.224;2022-08-03T16:21:58;30.30;1.00
5492;DHT22;2768;53.540;10.224;2022-08-03T16:27:53;30.30;1.00
5492;DHT22;2768;53.540;10.224;2022-08-03T16:34:03;30.30;1.00
5492;DHT22;2768;53.540;10.224;2022-08-03T16:39:57;30.10;1.00
5492;DHT22;2768;53.540;10.224;2022-08-03T16:45:52;30.20;1.00
5492;DHT22;2768;53.540;10.224;2022-08-03T16:51:45;30.10;1.00
5492;DHT22;2768;53.540;10.224;2022-08-03T16:57:41;30.20;1.00
5492;DHT22;2768;53.540;10.224;2022-08-03T17:03:53;30.10;1.00
5492;DHT22;2768;53.540;10.224;2022-08-03T17:09:55;30.00;1.00
5492;DHT22;2768;53.540;10.224;2022-08-03T17:15:49;30.00;1.00
5492;DHT22;2768;53.540;10.224;2022-08-03T17:21:59;29.90;1.00
5492;DHT22;2768;53.540;10.224;2022-08-03T17:27:55;29.90;1.00
5492;DHT22;2768;53.540;10.224;2022-08-03T17:34:10;29.90;1.00
5492;DHT22;2768;53.540;10.224;2022-08-03T17:40:06;29.90;1.00
5492;DHT22;2768;53.540;10.224;2022-08-03T17:46:02;29.90;1.00
5492;DHT22;2768;53.540;10.224;2022-08-03T17:52:03;29.80;1.00
5492;DHT22;2768;53.540;10.224;2022-08-03T17:58:05;29.70;1.00
5492;DHT22;2768;53.540;10.224;2022-08-03T18:04:03;29.60;1.00
5492;DHT22;2768;53.540;10.224;2022-08-03T18:10:03;29.60;1.00
5492;DHT22;2768;53.540;10.224;2022-08-03T18:16:04;29.50;1.00
5492;DHT22;2768;53.540;10.224;2022-08-03T18:22:00;29.40;1.00
5492;DHT22;2768;53.540;10.224;2022-08-03T18:27:56;29.30;1.00
5492;DHT22;2768;53.540;10.224;2022-08-03T18:33:51;29.30;1.00
5492;DHT22;2768;53.540;10.224;2022-08-03T18:40:06;29.20;1.00
5492;DHT22;2768;53.540;10.224;2022-08-03T18:46:03;29.20;1.00
5492;DHT22;2768;53.540;10.224;2022-08-03T18:52:03;29.10;1.00
5492;DHT22;2768;53.540;10.224;2022-08-03T18:58:11;29.10;1.00
5492;DHT22;2768;53.540;10.224;2022-08-03T19:04:12;29.00;1.00
5492;DHT22;2768;53.540;10.224;2022-08-03T19:10:09;28.90;1.00
5492;DHT22;2768;53.540;10.224;2022-08-03T19:16:08;28.80;1.00
5492;DHT22;2768;53.540;10.224;2022-08-03T19:22:04;28.60;1.00
5492;DHT22;2768;53.540;10.224;2022-08-03T19:28:02;28.30;1.00
5492;DHT22;2768;53.540;10.224;2022-08-03T19:33:58;28.30;1.00
5492;DHT22;2768;53.540;10.224;2022-08-03T19:39:52;28.30;1.00
5492;DHT22;2768;53.540;10.224;2022-08-03T19:45:49;28.00;1.00
5492;DHT22;2768;53.540;10.224;2022-08-03T19:51:58;27.70;1.00
5492;DHT22;2768;53.540;10.224;2022-08-03T19:57:55;27.60;1.00
5492;DHT22;2768;53.540;10.224;2022-08-03T20:03:51;27.20;1.00
5492;DHT22;2768;53.540;10.224;2022-08-03T20:09:45;27.20;1.00
5492;DHT22;2768;53.540;10.224;2022-08-03T20:15:46;27.00;1.00
5492;DHT22;2768;53.540;10.224;2022-08-03T20:21:47;26.90;1.00
5492;DHT22;2768;53.540;10.224;2022-08-03T20:27:44;26.90;1.00
5492;DHT22;2768;53.540;10.224;2022-08-03T20:33:59;26.90;1.00
5492;DHT22;2768;53.540;10.224;2022-08-03T20:39:54;26.90;1.00
5492;DHT22;2768;53.540;10.224;2022-08-03T20:45:47;26.60;1.00
5492;DHT22;2768;53.540;10.224;2022-08-03T20:52:01;26.50;1.00
5492;DHT22;2768;53.540;10.224;2022-08-03T20:57:56;26.50;1.00
5492;DHT22;2768;53.540;10.224;2022-08-03T21:03:54;26.50;1.00
5492;DHT22;2768;53.540;10.224;2022-08-03T21:09:50;26.50;1.00
5492;DHT22;2768;53.540;10.224;2022-08-03T21:15:51;26.30;1.00
5492;DHT22;2768;53.540;10.224;2022-08-03T21:22:07;26.50;7.50
5492;DHT22;2768;53.540;10.224;2022-08-03T21:28:01;26.40;4.20
5492;DHT22;2768;53.540;10.224;2022-08-03T21:34:03;26.20;3.10
5492;DHT22;2768;53.540;10.224;2022-08-03T21:39:57;26.10;15.10
5492;DHT22;2768;53.540;10.224;2022-08-03T21:45:52;26.10;17.80
5492;DHT22;2768;53.540;10.224;2022-08-03T21:51:48;26.10;16.60
5492;DHT22;2768;53.540;10.224;2022-08-03T21:57:43;26.10;20.90
5492;DHT22;2768;53.540;10.224;2022-08-03T22:03:37;26.10;27.80
5492;DHT22;2768;53.540;10.224;2022-08-03T22:09:46;26.00;27.60
5492;DHT22;2768;53.540;10.224;2022-08-03T22:15:43;26.00;33.00
5492;DHT22;2768;53.540;10.224;2022-08-03T22:21:36;25.90;36.70
5492;DHT22;2768;53.540;10.224;2022-08-03T22:27:32;25.80;37.80
5492;DHT22;2768;53.540;10.224;2022-08-03T22:33:29;25.70;39.80
5492;DHT22;2768;53.540;10.224;2022-08-03T22:39:26;25.80;42.90
5492;DHT22;2768;53.540;10.224;2022-08-03T22:45:21;25.70;42.00
5492;DHT22;2768;53.540;10.224;2022-08-03T22:51:35;25.50;45.60
5492;DHT22;2768;53.540;10.224;2022-08-03T22:57:31;25.40;50.10
5492;DHT22;2768;53.540;10.224;2022-08-03T23:03:30;25.30;53.10
5492;DHT22;2768;53.540;10.224;2022-08-03T23:09:44;25.30;58.80
5492;DHT22;2768;53.540;10.224;2022-08-03T23:15:39;25.20;61.70
5492;DHT22;2768;53.540;10.224;2022-08-03T23:21:35;25.30;64.30
5492;DHT22;2768;53.540;10.224;2022-08-03T23:27:49;25.20;70.70
5492;DHT22;2768;53.540;10.224;2022-08-03T23:33:58;25.00;72.30
5492;DHT22;2768;53.540;10.224;2022-08-03T23:40:12;25.00;73.70
5492;DHT22;2768;53.540;10.224;2022-08-03T23:46:06;25.00;78.10
5492;DHT22;2768;53.540;10.224;2022-08-03T23:52:05;24.80;83.60
5492;DHT22;2768;53.540;10.224;2022-08-03T23:58:04;24.70;88.90
